Akron, Colorado
Current Conditions -  °F | °C
As of 2:53 AM on Sunday 23 Nov 2014 (Local Time) from KAKO Reporting Station
Overcast Overcast  
Wind Chill: 33°   Ceiling: 6000
Heat Index: 42°   Visibility: 10mi
Dew Point: 29°   Wind: 22mph
Humidity: 60%   Direction: 350°N
Pressure: 29.63"   Gusts: 29mph
Location:  40.16°N, 103.21°W
Report Text: KAKO 230953Z AUTO 35019G25KT 10SM BKN060 OVC095 06/M02 A2963 RMK AO2 PK WND 33031/0854 SLP008 T00561017
Loading
Personal Weather Stations






























Interactive Weather Map New forecast layout! Learn more

10-Day Weather Forecast

Advertisements
Track Severe Weather on mobile